createdAt,value
2023-05-23T00:01:49.827Z,8.15
2023-05-23T00:05:18.161Z,7.50
2023-05-23T00:07:45.797Z,7.03
2023-05-23T00:10:14.010Z,8.18
2023-05-23T00:12:42.692Z,8.00
2023-05-23T00:15:10.768Z,15.25
2023-05-23T00:17:42.816Z,10.98
2023-05-23T00:20:11.622Z,8.52
2023-05-23T00:22:44.951Z,8.15
2023-05-23T00:25:12.152Z,5.90
2023-05-23T00:27:39.342Z,6.25
2023-05-23T00:30:22.641Z,7.72
2023-05-23T00:32:49.858Z,7.40
2023-05-23T00:35:17.813Z,7.03
2023-05-23T00:37:52.060Z,8.88
2023-05-23T00:40:19.804Z,8.85
2023-05-23T00:42:48.267Z,7.47
2023-05-23T00:45:17.191Z,7.15
2023-05-23T00:47:46.002Z,7.28
2023-05-23T00:50:16.699Z,7.32
2023-05-23T00:52:46.586Z,8.20
2023-05-23T00:55:14.707Z,8.85
2023-05-23T00:57:44.716Z,10.82
2023-05-23T01:00:14.072Z,8.07
2023-05-23T01:02:46.362Z,9.40
2023-05-23T01:05:22.788Z,7.68
2023-05-23T01:07:51.822Z,8.65
2023-05-23T01:10:22.382Z,7.05
2023-05-23T01:12:52.330Z,8.13
2023-05-23T01:15:21.954Z,9.30
2023-05-23T01:17:49.207Z,8.60
2023-05-23T01:20:31.642Z,6.80
2023-05-23T01:23:19.102Z,10.35
2023-05-23T01:26:13.741Z,10.75
2023-05-23T01:28:55.970Z,8.63
2023-05-23T01:31:27.930Z,7.22
2023-05-23T01:33:56.747Z,7.00
2023-05-23T01:36:23.939Z,9.27
2023-05-23T01:38:52.404Z,8.70
2023-05-23T01:41:19.506Z,7.30
2023-05-23T01:43:47.640Z,11.70
2023-05-23T01:46:16.749Z,11.20
2023-05-23T01:49:12.600Z,9.20
2023-05-23T01:51:40.912Z,8.27
2023-05-23T01:54:08.389Z,8.30
2023-05-23T01:56:37.701Z,9.85
2023-05-23T01:59:05.073Z,10.38
2023-05-23T02:01:33.370Z,8.70
2023-05-23T02:04:00.848Z,8.10
2023-05-23T02:06:28.048Z,9.57
2023-05-23T02:08:55.225Z,11.15
2023-05-23T02:11:22.735Z,11.98
2023-05-23T02:13:50.568Z,8.77
2023-05-23T02:16:20.583Z,11.00
2023-05-23T02:18:49.328Z,9.40
2023-05-23T02:21:16.586Z,9.60
2023-05-23T02:23:43.760Z,10.95
2023-05-23T02:26:11.030Z,7.95
2023-05-23T02:28:38.177Z,11.30
2023-05-23T02:31:05.478Z,10.02
2023-05-23T02:33:32.705Z,8.68
2023-05-23T02:36:00.044Z,8.65
2023-05-23T02:38:27.603Z,9.82
2023-05-23T02:40:57.812Z,8.55
2023-05-23T02:43:25.206Z,9.55
2023-05-23T02:45:52.366Z,10.57
2023-05-23T02:48:19.558Z,10.82
2023-05-23T02:50:47.504Z,8.13
2023-05-23T02:53:14.887Z,7.88
2023-05-23T02:55:43.267Z,7.95
2023-05-23T02:58:13.025Z,9.25
2023-05-23T03:00:40.235Z,16.35
2023-05-23T03:03:07.800Z,8.80
2023-05-23T03:05:35.216Z,10.13
2023-05-23T03:08:02.978Z,8.57
2023-05-23T03:10:30.249Z,8.48
2023-05-23T03:12:57.608Z,10.10
2023-05-23T03:15:24.993Z,6.90
2023-05-23T03:17:52.293Z,8.75
2023-05-23T03:20:19.830Z,9.18
2023-05-23T03:22:47.188Z,9.40
2023-05-23T03:25:17.008Z,7.97
2023-05-23T03:27:44.280Z,8.07
2023-05-23T03:30:13.084Z,10.25
2023-05-23T03:32:41.606Z,13.98
2023-05-23T03:35:09.513Z,10.63
2023-05-23T03:37:43.599Z,10.57
2023-05-23T03:40:11.237Z,14.35
2023-05-23T03:42:39.897Z,9.45
2023-05-23T03:45:09.262Z,12.60
2023-05-23T03:47:36.754Z,9.50
2023-05-23T03:50:10.227Z,10.45
2023-05-23T03:52:46.381Z,10.00
2023-05-23T03:55:41.394Z,12.18
2023-05-23T03:58:08.974Z,9.05
2023-05-23T04:00:37.312Z,7.25
2023-05-23T04:03:09.107Z,10.65
2023-05-23T04:05:36.817Z,9.00
2023-05-23T04:08:04.124Z,11.70
2023-05-23T04:10:31.914Z,10.88
2023-05-23T04:13:01.727Z,9.02
2023-05-23T04:15:29.147Z,12.05
2023-05-23T04:18:09.909Z,11.40
2023-05-23T04:20:44.610Z,7.88
2023-05-23T04:23:12.629Z,7.65
2023-05-23T04:25:42.390Z,9.10
2023-05-23T04:28:35.360Z,12.10
2023-05-23T04:31:03.509Z,13.13
2023-05-23T04:33:34.515Z,11.27
2023-05-23T04:37:02.592Z,13.07
2023-05-23T04:39:31.063Z,9.82
2023-05-23T04:42:24.960Z,12.00
2023-05-23T04:45:19.725Z,9.48
2023-05-23T04:47:56.661Z,7.57
2023-05-23T04:50:51.395Z,10.13
2023-05-23T04:53:19.299Z,9.38
2023-05-23T04:55:46.680Z,7.57
2023-05-23T04:58:20.777Z,8.90
2023-05-23T05:00:50.684Z,11.63
2023-05-23T05:03:18.818Z,8.35
2023-05-23T05:05:47.525Z,8.52
2023-05-23T05:08:15.805Z,9.63
2023-05-23T05:10:47.426Z,12.00
2023-05-23T05:13:16.138Z,13.30
2023-05-23T05:15:57.435Z,10.68
2023-05-23T05:18:28.759Z,8.30
2023-05-23T05:21:49.992Z,12.05
2023-05-23T05:24:17.313Z,12.50
2023-05-23T05:26:44.556Z,11.05
2023-05-23T05:29:16.718Z,10.25
2023-05-23T05:31:45.458Z,9.00
2023-05-23T05:34:13.563Z,13.75
2023-05-23T05:36:48.145Z,9.48
2023-05-23T05:39:20.533Z,12.45
2023-05-23T05:41:48.456Z,11.63
2023-05-23T05:44:15.895Z,14.82
2023-05-23T05:46:44.122Z,12.02
2023-05-23T05:49:12.457Z,13.48
2023-05-23T05:51:40.337Z,11.82
2023-05-23T05:54:07.788Z,13.38
2023-05-23T05:56:35.079Z,12.60
2023-05-23T05:59:02.306Z,12.43
2023-05-23T06:01:30.995Z,10.73
2023-05-23T06:03:58.852Z,9.98
2023-05-23T06:06:26.514Z,14.25
2023-05-23T06:08:54.306Z,13.77
2023-05-23T06:11:22.678Z,14.48
2023-05-23T06:13:49.837Z,11.00
2023-05-23T06:16:23.554Z,14.38
2023-05-23T06:18:50.869Z,12.18
2023-05-23T06:21:18.587Z,13.10
2023-05-23T06:23:49.632Z,15.50
2023-05-23T06:26:16.961Z,13.18
2023-05-23T06:28:45.426Z,13.80
2023-05-23T06:31:13.089Z,13.90
2023-05-23T06:33:40.311Z,15.65
2023-05-23T06:36:07.664Z,13.38
2023-05-23T06:38:34.894Z,13.77
2023-05-23T06:41:12.375Z,12.23
2023-05-23T06:43:39.881Z,10.65
2023-05-23T06:46:20.433Z,12.93
2023-05-23T06:48:47.678Z,11.30
2023-05-23T06:51:14.930Z,14.70
2023-05-23T06:53:42.911Z,16.67
2023-05-23T06:56:10.965Z,15.45
2023-05-23T06:58:51.651Z,11.55
2023-05-23T07:01:32.530Z,16.88
2023-05-23T07:03:59.923Z,11.77
2023-05-23T07:06:29.798Z,12.45
2023-05-23T07:09:00.726Z,13.88
2023-05-23T07:11:28.365Z,13.82
2023-05-23T07:13:59.822Z,11.05
2023-05-23T07:16:40.311Z,14.57
2023-05-23T07:19:09.129Z,15.77
2023-05-23T07:21:42.919Z,10.85
2023-05-23T07:24:10.804Z,13.45
2023-05-23T07:26:38.543Z,11.88
2023-05-23T07:29:07.341Z,13.40
2023-05-23T07:31:34.954Z,11.15
2023-05-23T07:34:02.753Z,17.40
2023-05-23T07:36:50.464Z,14.20
2023-05-23T07:40:11.788Z,11.02
2023-05-23T07:42:39.211Z,15.90
2023-05-23T07:45:06.945Z,11.27
2023-05-23T07:47:36.496Z,12.48
2023-05-23T07:50:04.056Z,14.90
2023-05-23T07:52:32.219Z,9.77
2023-05-23T07:55:00.907Z,14.95
2023-05-23T07:57:28.778Z,12.90
2023-05-23T07:59:56.063Z,18.48
2023-05-23T08:02:25.997Z,11.40
2023-05-23T08:04:54.265Z,14.90
2023-05-23T08:07:22.209Z,16.52
2023-05-23T08:10:01.292Z,14.82
2023-05-23T08:12:28.648Z,10.95
2023-05-23T08:15:58.808Z,13.60
2023-05-23T08:18:31.075Z,23.05
2023-05-23T08:21:06.805Z,19.95
2023-05-23T08:23:34.699Z,14.75
2023-05-23T08:26:02.280Z,14.32
2023-05-23T08:28:57.977Z,11.10
2023-05-23T08:31:25.530Z,8.73
2023-05-23T08:33:52.955Z,11.98
2023-05-23T08:36:20.087Z,9.10
2023-05-23T08:38:48.004Z,11.40
2023-05-23T08:41:24.320Z,10.55
2023-05-23T08:43:59.357Z,11.57
2023-05-23T08:46:34.278Z,10.35
2023-05-23T08:49:05.894Z,12.25
2023-05-23T08:51:38.060Z,14.10
2023-05-23T08:54:15.187Z,13.27
2023-05-23T08:56:44.492Z,9.13
2023-05-23T08:59:15.366Z,12.35
2023-05-23T09:01:48.426Z,11.63
2023-05-23T09:04:43.325Z,25.23
2023-05-23T09:07:21.076Z,20.17
2023-05-23T09:10:40.941Z,16.40
2023-05-23T09:13:10.116Z,19.83
2023-05-23T09:15:39.116Z,18.65
2023-05-23T09:18:06.658Z,16.83
2023-05-23T09:20:34.827Z,21.10
2023-05-23T09:23:09.130Z,20.35
2023-05-23T09:25:47.399Z,21.30
2023-05-23T09:28:15.420Z,17.80
2023-05-23T09:30:43.234Z,18.15
2023-05-23T09:33:10.376Z,27.42
2023-05-23T09:35:44.746Z,20.25
2023-05-23T09:38:11.951Z,17.08
2023-05-23T09:40:45.636Z,23.13
2023-05-23T09:43:12.819Z,16.90
2023-05-23T09:45:39.960Z,18.92
2023-05-23T09:48:14.285Z,19.65
2023-05-23T09:50:42.051Z,20.55
2023-05-23T09:53:11.393Z,20.00
2023-05-23T09:55:40.535Z,20.27
2023-05-23T09:58:09.210Z,21.65
2023-05-23T10:00:36.611Z,19.98
2023-05-23T10:03:14.854Z,22.40
2023-05-23T10:05:48.906Z,18.95
2023-05-23T10:08:38.817Z,20.75
2023-05-23T10:11:15.119Z,21.35
2023-05-23T10:13:51.040Z,19.40
2023-05-23T10:16:39.020Z,22.45
2023-05-23T10:19:20.946Z,21.00
2023-05-23T10:21:54.662Z,19.88
2023-05-23T10:24:24.918Z,19.65
2023-05-23T10:26:53.618Z,24.27
2023-05-23T10:29:24.907Z,19.00
2023-05-23T10:31:53.433Z,19.45
2023-05-23T10:34:34.897Z,22.33
2023-05-23T10:37:15.240Z,20.42
2023-05-23T10:40:13.878Z,23.15
2023-05-23T10:42:46.874Z,20.27
2023-05-23T10:45:22.150Z,22.95
2023-05-23T10:47:51.442Z,20.55
2023-05-23T10:50:35.269Z,18.52
2023-05-23T10:53:06.315Z,16.77
2023-05-23T10:55:35.952Z,14.25
2023-05-23T10:58:17.672Z,14.98
2023-05-23T11:01:13.983Z,12.55
2023-05-23T11:03:47.107Z,12.25
2023-05-23T11:06:51.107Z,15.00
2023-05-23T11:09:21.597Z,13.50
2023-05-23T11:11:54.392Z,10.80
2023-05-23T11:14:38.386Z,9.88
2023-05-23T11:17:19.620Z,13.63
2023-05-23T11:20:17.200Z,9.82
2023-05-23T11:22:54.850Z,10.65
2023-05-23T11:26:22.627Z,12.25
2023-05-23T11:28:58.561Z,8.75
2023-05-23T11:31:25.941Z,10.30
2023-05-23T11:33:53.313Z,13.63
2023-05-23T11:36:30.260Z,8.25
2023-05-23T11:39:01.858Z,9.55
2023-05-23T11:41:33.939Z,12.88
2023-05-23T11:44:01.795Z,11.30
2023-05-23T11:46:29.061Z,10.35
2023-05-23T11:48:58.123Z,11.45
2023-05-23T11:51:25.214Z,11.00
2023-05-23T11:53:52.400Z,13.55
2023-05-23T11:56:19.521Z,11.35
2023-05-23T11:58:46.637Z,10.82
2023-05-23T12:01:14.102Z,9.68
2023-05-23T12:03:53.949Z,10.75
2023-05-23T12:06:25.415Z,11.55
2023-05-23T12:08:52.936Z,11.27
2023-05-23T12:11:20.104Z,11.93
2023-05-23T12:13:47.382Z,12.25
2023-05-23T12:16:15.999Z,9.77
2023-05-23T12:18:43.677Z,10.88
2023-05-23T12:21:18.113Z,13.02
2023-05-23T12:23:45.530Z,9.90
2023-05-23T12:26:12.624Z,11.98
2023-05-23T12:29:04.897Z,11.00
2023-05-23T12:31:33.340Z,11.10
2023-05-23T12:34:00.745Z,8.82
2023-05-23T12:36:32.821Z,10.73
2023-05-23T12:39:07.703Z,11.73
2023-05-23T12:41:35.236Z,10.60
2023-05-23T12:44:03.741Z,9.43
2023-05-23T12:46:31.189Z,10.40
2023-05-23T12:48:58.428Z,9.73
2023-05-23T12:51:25.694Z,8.38
2023-05-23T12:53:57.337Z,7.80
2023-05-23T12:56:24.566Z,11.23
2023-05-23T12:58:53.302Z,10.30
2023-05-23T13:01:20.842Z,9.63
2023-05-23T13:03:48.153Z,8.95
2023-05-23T13:06:15.282Z,9.18
2023-05-23T13:08:42.900Z,8.82
2023-05-23T13:11:10.194Z,12.15
2023-05-23T13:13:37.421Z,8.88
2023-05-23T13:16:04.592Z,9.65
2023-05-23T13:18:31.734Z,7.63
2023-05-23T13:25:26.968Z,9.77
2023-05-23T13:27:54.378Z,12.60
2023-05-23T13:30:23.896Z,12.32
2023-05-23T13:32:52.020Z,7.90
2023-05-23T13:35:19.558Z,9.35
2023-05-23T13:37:47.240Z,11.23
2023-05-23T13:40:19.080Z,10.40
2023-05-23T13:42:54.101Z,9.93
2023-05-23T13:45:23.320Z,10.50
2023-05-23T13:47:50.666Z,9.75
2023-05-23T13:50:18.502Z,9.88
2023-05-23T13:52:49.082Z,9.45
2023-05-23T13:55:24.441Z,9.55
2023-05-23T13:57:51.589Z,11.75
2023-05-23T14:00:18.883Z,9.43
2023-05-23T14:03:15.677Z,9.93
2023-05-23T14:05:42.776Z,10.77
2023-05-23T14:08:11.398Z,9.10
2023-05-23T14:10:38.656Z,12.80
2023-05-23T14:13:07.686Z,15.07
2023-05-23T14:16:14.800Z,11.48
2023-05-23T14:18:42.041Z,10.82
2023-05-23T14:21:09.103Z,12.13
2023-05-23T14:23:40.107Z,14.10
2023-05-23T14:26:07.498Z,11.10
2023-05-23T14:28:34.661Z,11.45
2023-05-23T14:31:01.781Z,10.85
2023-05-23T14:33:28.966Z,12.95
2023-05-23T14:36:50.521Z,13.60
2023-05-23T14:39:17.626Z,10.07
2023-05-23T14:41:46.893Z,11.82
2023-05-23T14:44:39.720Z,12.52
2023-05-23T14:47:06.897Z,9.77
2023-05-23T14:49:33.972Z,8.65
2023-05-23T14:52:01.215Z,17.70
2023-05-23T14:54:28.336Z,12.60
2023-05-23T14:56:58.046Z,8.80
2023-05-23T14:59:25.195Z,13.85
2023-05-23T15:01:52.449Z,14.32
2023-05-23T15:04:19.690Z,13.57
2023-05-23T15:06:47.453Z,9.30
2023-05-23T15:09:16.944Z,12.45
2023-05-23T15:11:46.112Z,13.07
2023-05-23T15:14:13.311Z,10.50
2023-05-23T15:16:40.403Z,8.00
2023-05-23T15:19:07.568Z,9.35
2023-05-23T15:21:34.789Z,8.75
2023-05-23T15:24:02.229Z,6.88
2023-05-23T15:26:29.412Z,8.10
2023-05-23T15:28:56.641Z,10.18
2023-05-23T15:31:23.833Z,8.68
2023-05-23T15:33:51.136Z,7.25
2023-05-23T15:36:18.419Z,9.30
2023-05-23T15:38:45.520Z,9.07
2023-05-23T15:41:12.919Z,8.35
2023-05-23T15:43:44.083Z,7.85
2023-05-23T15:46:11.273Z,8.70
2023-05-23T15:48:38.489Z,7.47
2023-05-23T15:51:32.837Z,8.43
2023-05-23T15:54:01.320Z,9.48
2023-05-23T15:56:28.829Z,8.65
2023-05-23T15:58:56.157Z,9.32
2023-05-23T16:01:23.641Z,8.68
2023-05-23T16:03:51.027Z,8.70
2023-05-23T16:06:18.214Z,6.97
2023-05-23T16:08:49.087Z,12.80
2023-05-23T16:11:16.352Z,8.95
2023-05-23T16:13:43.427Z,10.00
2023-05-23T16:16:10.667Z,11.00
2023-05-23T16:18:37.969Z,11.32
2023-05-23T16:21:05.318Z,9.38
2023-05-23T16:23:32.488Z,9.40
2023-05-23T16:25:59.591Z,11.98
2023-05-23T16:28:27.865Z,13.32
2023-05-23T16:30:56.537Z,10.95
2023-05-23T16:33:23.851Z,7.55
2023-05-23T16:35:51.098Z,8.48
2023-05-23T16:38:18.537Z,10.43
2023-05-23T16:40:45.642Z,15.95
2023-05-23T16:43:12.949Z,14.75
2023-05-23T16:45:41.970Z,8.55
2023-05-23T16:48:09.417Z,9.65
2023-05-23T16:50:36.584Z,12.13
2023-05-23T16:53:03.813Z,9.88
2023-05-23T16:55:30.893Z,10.85
2023-05-23T16:57:58.168Z,9.05
2023-05-23T17:00:26.938Z,9.40
2023-05-23T17:02:54.211Z,10.57
2023-05-23T17:05:21.653Z,9.00
2023-05-23T17:07:48.699Z,16.90
2023-05-23T17:10:17.627Z,10.80
2023-05-23T17:12:46.630Z,12.23
2023-05-23T17:15:13.764Z,13.90
2023-05-23T17:17:41.343Z,12.85
2023-05-23T17:20:11.724Z,12.00
2023-05-23T17:22:39.164Z,12.13
2023-05-23T17:25:06.681Z,15.20
2023-05-23T17:27:33.792Z,15.63
2023-05-23T17:30:04.578Z,15.32
2023-05-23T17:32:31.948Z,10.98
2023-05-23T17:34:59.161Z,8.32
2023-05-23T17:37:26.625Z,8.10
2023-05-23T17:39:56.667Z,8.55
2023-05-23T17:42:25.144Z,12.95
2023-05-23T17:44:52.255Z,14.48
2023-05-23T17:47:19.387Z,13.50
2023-05-23T17:49:46.461Z,11.70
2023-05-23T17:52:15.104Z,10.27
2023-05-23T17:54:42.558Z,9.75
2023-05-23T17:57:09.748Z,9.50
2023-05-23T17:59:37.238Z,10.65
2023-05-23T18:02:05.004Z,11.98
2023-05-23T18:04:32.148Z,11.40
2023-05-23T18:06:59.390Z,11.50
2023-05-23T18:09:26.561Z,13.23
2023-05-23T18:11:53.691Z,12.85
2023-05-23T18:14:21.416Z,12.68
2023-05-23T18:16:48.660Z,10.18
2023-05-23T18:19:16.308Z,9.25
2023-05-23T18:21:43.501Z,10.10
2023-05-23T18:24:11.849Z,11.93
2023-05-23T18:26:43.278Z,12.93
2023-05-23T18:29:11.165Z,16.23
2023-05-23T18:31:38.480Z,11.38
2023-05-23T18:34:06.017Z,11.68
2023-05-23T18:36:33.237Z,10.88
2023-05-23T18:39:00.453Z,13.18
2023-05-23T18:41:31.608Z,12.23
2023-05-23T18:43:58.792Z,12.18
2023-05-23T18:46:26.608Z,12.80
2023-05-23T18:48:53.929Z,11.77
2023-05-23T18:51:21.165Z,12.60
2023-05-23T18:53:48.353Z,11.38
2023-05-23T18:56:16.280Z,13.00
2023-05-23T18:58:47.111Z,12.05
2023-05-23T19:01:14.567Z,11.98
2023-05-23T19:03:41.712Z,10.57
2023-05-23T19:06:08.952Z,11.60
2023-05-23T19:08:36.091Z,14.95
2023-05-23T19:11:03.742Z,10.75
2023-05-23T19:13:31.021Z,11.82
2023-05-23T19:15:58.199Z,11.52
2023-05-23T19:18:25.403Z,12.90
2023-05-23T19:20:52.600Z,10.60
2023-05-23T19:23:19.693Z,10.80
2023-05-23T19:25:47.024Z,11.38
2023-05-23T19:28:17.102Z,9.85
2023-05-23T19:30:44.466Z,10.63
2023-05-23T19:33:11.970Z,10.13
2023-05-23T19:35:39.368Z,9.02
2023-05-23T19:38:06.626Z,9.52
2023-05-23T19:40:33.700Z,14.98
2023-05-23T19:43:00.973Z,11.55
2023-05-23T19:45:28.896Z,9.57
2023-05-23T19:47:57.911Z,10.48
2023-05-23T19:50:25.424Z,10.65
2023-05-23T19:52:52.558Z,11.65
2023-05-23T19:55:20.922Z,10.30
2023-05-23T19:57:47.975Z,11.52
2023-05-23T20:00:15.451Z,9.60
2023-05-23T20:02:42.845Z,9.70
2023-05-23T20:05:10.109Z,11.32
2023-05-23T20:07:37.708Z,12.40
2023-05-23T20:10:05.375Z,13.88
2023-05-23T20:12:32.554Z,13.45
2023-05-23T20:14:59.612Z,12.60
2023-05-23T20:17:26.738Z,14.43
2023-05-23T20:19:53.913Z,12.20
2023-05-23T20:22:21.037Z,12.85
2023-05-23T20:24:50.933Z,16.48
2023-05-23T20:27:18.084Z,12.60
2023-05-23T20:29:45.177Z,13.35
2023-05-23T20:32:12.264Z,12.57
2023-05-23T20:34:39.382Z,12.73
2023-05-23T20:37:06.507Z,16.15
2023-05-23T20:39:33.581Z,15.75
2023-05-23T20:42:01.319Z,13.55
2023-05-23T20:44:28.380Z,14.50
2023-05-23T20:46:57.210Z,15.40
2023-05-23T20:49:25.019Z,16.08
2023-05-23T20:51:52.097Z,14.38
2023-05-23T20:54:19.197Z,13.80
2023-05-23T20:57:38.383Z,16.17
2023-05-23T21:00:13.141Z,14.50
2023-05-23T21:02:41.588Z,14.18
2023-05-23T21:05:09.896Z,15.90
2023-05-23T21:07:37.378Z,15.85
2023-05-23T21:10:04.832Z,14.82
2023-05-23T21:12:32.081Z,13.55
2023-05-23T21:14:59.193Z,16.50
2023-05-23T21:17:26.554Z,15.13
2023-05-23T21:19:53.669Z,17.83
2023-05-23T21:22:20.782Z,14.77
2023-05-23T21:25:40.393Z,15.85
2023-05-23T21:28:07.498Z,15.73
2023-05-23T21:30:34.758Z,15.35
2023-05-23T21:33:01.953Z,14.43
2023-05-23T21:35:29.209Z,16.98
2023-05-23T21:38:02.810Z,15.98
2023-05-23T21:40:29.966Z,15.45
2023-05-23T21:42:57.021Z,14.05
2023-05-23T21:45:24.836Z,17.60
2023-05-23T21:47:51.943Z,19.27
2023-05-23T21:50:19.132Z,16.73
2023-05-23T21:52:46.219Z,17.88
2023-05-23T21:55:13.505Z,18.45
2023-05-23T21:57:40.541Z,16.88
2023-05-23T22:00:12.407Z,16.98
2023-05-23T22:02:44.461Z,17.70
2023-05-23T22:05:17.278Z,18.48
2023-05-23T22:07:44.548Z,20.98
2023-05-23T22:10:11.982Z,18.45
2023-05-23T22:12:39.109Z,18.00
2023-05-23T22:15:08.393Z,17.20
2023-05-23T22:17:35.476Z,16.70
2023-05-23T22:20:05.226Z,17.55
2023-05-23T22:22:32.516Z,21.10
2023-05-23T22:24:59.629Z,18.73
2023-05-23T22:27:28.412Z,17.67
2023-05-23T22:29:55.495Z,17.15
2023-05-23T22:32:22.631Z,17.67
2023-05-23T22:34:49.732Z,12.95
2023-05-23T22:37:17.006Z,13.88
2023-05-23T22:39:44.062Z,16.73
2023-05-23T22:42:12.235Z,17.95
2023-05-23T22:44:39.325Z,17.85
2023-05-23T22:47:06.620Z,12.00
2023-05-23T22:49:33.765Z,12.02
2023-05-23T22:52:01.351Z,13.00
2023-05-23T22:54:28.402Z,14.00
2023-05-23T22:56:55.919Z,13.82
2023-05-23T22:59:23.006Z,10.27
2023-05-23T23:01:51.237Z,11.13
2023-05-23T23:04:23.633Z,10.40
2023-05-23T23:06:53.856Z,14.13
2023-05-23T23:09:21.340Z,10.23
2023-05-23T23:11:48.489Z,11.52
2023-05-23T23:14:15.988Z,12.02
2023-05-23T23:16:43.380Z,11.23
2023-05-23T23:19:10.632Z,12.90
2023-05-23T23:21:38.006Z,10.27
2023-05-23T23:24:06.106Z,12.95
2023-05-23T23:26:33.199Z,14.50
2023-05-23T23:29:00.424Z,11.80
2023-05-23T23:31:27.620Z,14.55
2023-05-23T23:33:54.920Z,11.20
2023-05-23T23:36:22.066Z,15.38
2023-05-23T23:38:49.187Z,11.18
2023-05-23T23:41:16.351Z,13.73
2023-05-23T23:43:43.661Z,15.40
2023-05-23T23:46:11.430Z,13.82
2023-05-23T23:48:38.526Z,12.65
2023-05-23T23:51:06.955Z,11.98
2023-05-23T23:53:34.260Z,10.85
2023-05-23T23:56:01.392Z,16.50
2023-05-23T23:58:28.567Z,10.52
